Latest Weather Observations for Evans Head

IDN60801

Issued at 12:33 pm EST Sunday 26 June 2016 (issued every 30 minutes, with the page automatically refreshed every 10 minutes)

About weather observations | Map of weather stations | Latest weather observations for NSW | Other Formats
Station Details ID: 058212 Name: EVANS HEAD RAAF BOMBING RANGE AWS Lat: -29.18 Lon: 153.40 Height: 62.5 m
Data from the previous 72 hours. | See also: Recent months at Evans Head
Date/Time
EST
Temp
°C
App
Temp
°C
Dew
Point
°C
Rel
Hum
%
Delta-T
°C
Wind Press
QNH
hPa
Press
MSL
hPa
Rain since
9am
mm
Dir  Spd
km/h
Gust
km/h
Spd
kts
Gust
kts
26/12:30pm 13.9 11.4 3.7 50 4.6 WSW 6 9 3 5 1019.3 1019.2 0.0
26/12:00pm 13.7 11.1 4.0 52 4.4 SW 7 13 4 7 1019.7 1019.6 0.0
26/11:30am 12.4 9.0 3.9 56 3.8 SW 11 17 6 9 1020.4 1020.3 0.0
26/11:00am 11.3 8.7 4.1 61 3.2 SW 7 11 4 6 1021.0 1020.9 0.0
26/10:30am 11.1 7.8 2.4 55 3.7 W 9 13 5 7 1021.4 1021.3 0.0
26/10:00am 11.4 8.5 2.7 55 3.8 W 7 13 4 7 1020.8 1020.7 0.0
26/09:30am 11.2 8.4 3.3 58 3.5 WNW 7 15 4 8 1021.5 1021.4 0.0
26/09:00am 10.1 7.9 5.1 71 2.3 WNW 6 13 3 7 1021.7 1021.6 0.0
26/08:30am 8.1 5.3 2.1 66 2.5 W 6 9 3 5 1021.7 1021.6 0.0
26/08:00am 7.2 3.4 1.5 67 2.3 WNW 11 15 6 8 1021.1 1021.0 0.0
26/07:30am 6.9 2.2 1.0 66 2.4 W 15 19 8 10 1020.9 1020.8 0.0
26/07:00am 6.3 1.9 0.6 67 2.2 W 13 19 7 10 1020.7 1020.6 0.0
26/06:30am 6.5 2.1 0.6 66 2.3 W 13 17 7 9 1020.4 1020.3 0.0
26/06:00am 6.5 2.1 0.4 65 2.4 W 13 15 7 8 1020.1 1020.0 0.0
26/05:30am 6.7 2.3 0.4 64 2.5 W 13 15 7 8 1019.7 1019.6 0.0
26/05:00am 7.2 2.7 0.0 60 2.8 W 13 17 7 9 1019.4 1019.3 0.0
26/04:30am 7.4 2.6 -0.1 59 2.9 W 15 17 8 9 1019.0 1018.9 0.0
26/04:00am 7.6 2.8 0.1 59 2.9 W 15 17 8 9 1018.8 1018.7 0.0
26/03:30am 7.9 3.0 -0.3 56 3.2 WSW 15 19 8 10 1019.1 1019.0 0.0
26/03:00am 7.9 3.0 -0.6 55 3.3 W 15 17 8 9 1018.7 1018.6 0.0
26/02:30am 7.8 2.9 -0.4 56 3.2 W 15 17 8 9 1019.1 1019.0 0.0
26/02:00am 7.6 3.1 -0.6 56 3.2 WSW 13 17 7 9 1019.3 1019.2 0.0
26/01:30am 7.8 3.3 -0.2 57 3.1 W 13 17 7 9 1019.4 1019.3 0.0
26/01:00am 8.1 3.6 -0.6 54 3.4 WSW 13 17 7 9 1019.5 1019.4 0.0
26/12:30am 8.4 3.5 -0.6 53 3.5 WNW 15 19 8 10 1019.4 1019.3 0.0
26/12:00am 7.6 3.3 -1.4 53 3.4 WNW 11 17 6 9 1019.4 1019.3 0.0
 
Date/Time
EST
Temp
°C
App
Temp
°C
Dew
Point
°C
Rel
Hum
%
Delta-T
°C
Wind Press
QNH
hPa
Press
MSL
hPa
Rain since
9am
mm
Dir  Spd
km/h
Gust
km/h
Spd
kts
Gust
kts
25/11:30pm 8.2 4.3 -1.3 51 3.6 NW 9 11 5 6 1019.6 1019.5 0.0
25/11:00pm 7.9 4.0 -1.3 52 3.5 NW 9 9 5 5 1019.6 1019.5 0.0
25/10:30pm 7.9 3.6 -1.3 52 3.5 NNW 11 13 6 7 1019.6 1019.5 0.0
25/10:00pm 8.7 4.7 -2.0 47 4.0 NNW 9 11 5 6 1019.7 1019.6 0.0
25/09:30pm 9.3 5.3 -2.3 44 4.4 NNW 9 11 5 6 1019.7 1019.6 0.0
25/09:00pm 9.6 5.9 -2.7 42 4.6 NNW 7 9 4 5 1019.6 1019.5 0.0
25/08:30pm 11.8 9.2 -4.8 31 6.1 CALM 0 0 0 0 1019.4 1019.3 0.0
25/08:00pm 10.5 6.7 -3.9 36 5.3 NW 7 9 4 5 1019.2 1019.1 0.0
25/07:30pm 11.1 6.9 -3.8 35 5.6 WNW 9 9 5 5 1019.1 1019.0 0.0
25/07:00pm 12.4 8.2 -3.8 32 6.1 WNW 9 11 5 6 1018.7 1018.6 0.0
25/06:30pm 11.4 7.2 -3.5 35 5.6 WNW 9 11 5 6 1018.5 1018.4 0.0
25/06:00pm 12.1 8.5 -3.3 34 5.9 WSW 6 9 3 5 1018.2 1018.1 0.0
25/05:30pm 12.2 8.1 -2.8 35 5.8 WNW 9 11 5 6 1017.9 1017.8 0.0
25/05:00pm 12.0 8.5 -1.2 40 5.3 WNW 7 7 4 4 1017.6 1017.5 0.0
25/04:30pm 13.1 9.2 -1.2 37 5.8 WSW 9 11 5 6 1017.5 1017.4 0.0
25/04:00pm 14.0 10.1 -1.6 34 6.3 WSW 9 13 5 7 1017.3 1017.2 0.0
25/03:30pm 14.7 9.9 -2.2 31 6.8 SW 13 19 7 10 1017.2 1017.1 0.0
25/03:00pm 15.4 11.4 -2.1 30 7.1 SSW 9 15 5 8 1017.0 1016.9 0.0
25/02:30pm 15.7 10.9 -2.3 29 7.3 SSW 13 22 7 12 1017.0 1016.9 0.0
25/02:00pm 15.9 11.8 -3.0 27 7.6 SW 9 19 5 10 1016.9 1016.8 0.0
25/01:30pm 15.9 11.6 -1.6 30 7.2 SSW 11 19 6 10 1016.9 1016.8 0.0
25/01:00pm 15.5 10.8 -2.0 30 7.1 SW 13 22 7 12 1017.0 1016.9 0.0
25/12:30pm 15.1 10.0 -1.9 31 6.9 SW 15 28 8 15 1017.1 1017.0 0.0
25/12:00pm 15.2 9.9 -0.9 33 6.7 SSW 17 26 9 14 1017.3 1017.2 0.0
25/11:30am 14.4 8.8 -2.5 31 6.7 SW 17 32 9 17 1017.6 1017.5 0.0
25/11:00am 13.8 8.3 -2.2 33 6.4 WSW 17 30 9 16 1017.7 1017.6 0.0
25/10:30am 13.6 7.9 -0.8 37 5.9 WSW 19 30 10 16 1017.7 1017.6 0.0
25/10:00am 13.0 7.3 -1.0 38 5.7 WSW 19 30 10 16 1017.7 1017.6 0.0
25/09:30am 12.3 6.7 -0.2 42 5.1 WSW 19 30 10 16 1017.7 1017.6 0.0
25/09:00am 11.8 6.7 0.9 47 4.6 W 17 26 9 14 1017.6 1017.5 0.0
25/08:30am 11.0 6.3 1.0 50 4.2 W 15 24 8 13 1017.4 1017.3 0.0
25/08:00am 9.8 4.5 -0.7 48 4.1 W 17 26 9 14 1017.0 1016.9 0.0
25/07:30am 8.9 3.6 -0.7 51 3.8 WSW 17 24 9 13 1016.9 1016.8 0.0
25/07:00am 7.8 3.6 -0.7 55 3.3 W 11 19 6 10 1016.5 1016.4 0.0
25/06:30am 8.3 3.7 -1.2 51 3.7 W 13 26 7 14 1015.9 1015.8 0.0
25/06:00am 8.6 3.6 -0.9 51 3.7 W 15 24 8 13 1015.6 1015.5 0.0
25/05:30am 8.0 3.8 -1.0 53 3.5 WNW 11 20 6 11 1015.3 1015.2 0.0
25/05:00am 9.1 3.4 -1.0 49 3.9 W 19 30 10 16 1014.8 1014.7 0.0
25/04:30am 9.0 3.7 -0.6 51 3.8 W 17 24 9 13 1014.7 1014.6 0.0
25/04:00am 8.5 3.6 -0.5 53 3.5 WNW 15 20 8 11 1014.5 1014.4 0.0
25/03:30am 9.8 5.2 -0.7 48 4.2 WSW 13 19 7 10 1014.7 1014.6 0.0
25/03:00am 9.3 6.1 -0.3 51 3.8 W 6 9 3 5 1014.9 1014.8 0.0
25/02:30am 8.6 3.7 -0.2 54 3.5 SSW 15 19 8 10 1014.6 1014.5 0.0
25/02:00am 11.7 6.4 -0.8 42 5.0 WSW 17 24 9 13 1014.4 1014.3 0.0
25/01:30am 12.1 7.5 -0.7 41 5.2 WSW 13 26 7 14 1014.8 1014.7 0.0
25/01:00am 12.7 6.7 -1.6 37 5.7 WSW 20 41 11 22 1014.4 1014.3 0.0
25/12:30am 12.9 6.3 -0.4 40 5.5 WSW 24 39 13 21 1013.9 1013.8 0.0
25/12:00am 11.9 7.6 1.3 48 4.5 SW 13 20 7 11 1013.8 1013.7 0.0
 
Date/Time
EST
Temp
°C
App
Temp
°C
Dew
Point
°C
Rel
Hum
%
Delta-T
°C
Wind Press
QNH
hPa
Press
MSL
hPa
Rain since
9am
mm
Dir  Spd
km/h
Gust
km/h
Spd
kts
Gust
kts
24/11:30pm 12.5 8.6 1.2 46 4.8 WSW 11 17 6 9 1013.7 1013.6 0.0
24/11:00pm 13.2 8.6 1.5 45 5.0 W 15 24 8 13 1013.3 1013.2 0.0
24/10:30pm 13.6 8.6 1.6 44 5.2 WNW 17 28 9 15 1012.8 1012.8 0.0
24/10:00pm 13.7 9.2 2.0 45 5.1 WNW 15 24 8 13 1012.5 1012.5 0.0
24/09:30pm 14.7 9.9 2.6 44 5.4 W 17 30 9 16 1011.9 1011.9 0.0
24/09:00pm 15.1 9.2 2.0 41 5.8 W 22 48 12 26 1011.7 1011.7 0.0
24/08:30pm 14.5 9.5 3.6 48 5.0 W 19 35 10 19 1011.4 1011.4 0.0
24/08:00pm 13.2 9.9 4.6 56 4.0 NW 11 17 6 9 1010.9 1010.9 0.0
24/07:30pm 14.5 10.8 4.2 50 4.8 NW 13 22 7 12 1010.3 1010.3 0.0
24/07:00pm 15.6 11.1 4.0 46 5.4 NW 17 28 9 15 1010.2 1010.2 0.0
24/06:30pm 16.3 11.1 3.4 42 5.9 NW 20 35 11 19 1009.5 1009.5 0.0
24/06:00pm 16.9 10.2 3.6 41 6.2 NW 28 50 15 27 1008.9 1008.8 0.0
24/05:30pm 17.3 10.5 2.9 38 6.6 NW 28 50 15 27 1008.3 1008.2 0.0
24/05:09pm 17.6 10.7 2.4 36 6.9 NW 28 52 15 28 1007.9 1007.8 0.0
24/05:00pm 17.6 11.5 2.8 37 6.8 NW 24 37 13 20 1007.9 1007.8 0.0
24/04:30pm 18.9 12.1 3.1 35 7.4 NW 28 50 15 27 1007.4 1007.3 0.0
24/04:00pm 20.0 13.5 4.5 36 7.5 WNW 28 54 15 29 1007.0 1006.9 0.0
24/03:30pm 21.1 13.8 5.5 36 7.8 WNW 33 59 18 32 1006.2 1006.1 0.0
24/03:03pm 21.9 15.8 6.6 37 7.8 WNW 28 50 15 27 1005.7 1005.6 0.0
24/03:00pm 22.0 16.3 6.7 37 7.9 NW 26 50 14 27 1005.7 1005.6 0.0
24/02:30pm 22.6 15.8 7.6 38 7.8 WNW 33 69 18 37 1005.6 1005.5 0.0
24/02:00pm 23.0 16.4 8.7 40 7.7 NW 33 52 18 28 1005.8 1005.7 0.0
24/01:30pm 23.0 16.5 8.3 39 7.8 WNW 32 57 17 31 1005.8 1005.7 0.0
24/01:16pm 23.0 17.6 9.4 42 7.4 W 28 50 15 27 1005.8 1005.7 0.0
24/01:00pm 24.2 19.9 12.2 47 6.9 NW 26 44 14 24 1005.9 1005.8 0.0
24/12:30pm 23.9 19.7 12.5 49 6.5 WNW 26 46 14 25 1005.9 1005.8 0.0
24/12:00pm 23.8 19.8 13.1 51 6.2 NW 26 46 14 25 1006.2 1006.1 0.0
24/11:30am 23.6 20.3 14.0 55 5.6 NW 24 43 13 23 1006.8 1006.7 0.0
24/11:00am 22.8 18.6 13.6 56 5.4 NW 28 48 15 26 1007.2 1007.1 0.0
24/10:49am 22.9 18.9 14.2 58 5.1 NW 28 46 15 25 1007.5 1007.4 0.0
24/10:30am 22.8 20.8 15.6 64 4.3 NNW 20 39 11 21 1007.8 1007.7 0.0
24/10:00am 21.6 18.5 14.5 64 4.2 NW 24 46 13 25 1008.3 1008.2 0.0
24/09:30am 20.6 17.0 14.3 67 3.7 NW 26 39 14 21 1008.4 1008.3 0.0
24/09:06am 19.8 15.4 14.2 70 3.2 NNW 30 48 16 26 1008.7 1008.6 0.0
24/09:00am 19.7 16.1 14.3 71 3.1 NNW 26 43 14 23 1008.7 1008.6 0.0
24/08:30am 18.5 14.8 14.0 75 2.6 NNW 26 44 14 24 1008.8 1008.7 0.0
24/08:00am 17.4 14.0 13.7 79 2.1 NNW 24 41 13 22 1008.7 1008.6 0.0
24/07:30am 16.3 12.6 13.8 85 1.4 NNW 26 43 14 23 1009.1 1009.0 0.0
24/07:00am 15.4 12.4 13.6 89 1.0 NNW 22 35 12 19 1008.9 1008.8 0.0
24/06:30am 15.4 12.2 13.2 87 1.2 NNW 22 35 12 19 1009.0 1008.9 0.0
24/06:00am 15.5 11.9 13.2 86 1.3 NNW 24 37 13 20 1008.7 1008.6 0.0
24/05:30am 15.9 11.6 13.2 84 1.5 NNW 28 44 15 24 1008.1 1008.0 0.0
24/05:00am 15.7 12.1 13.0 84 1.5 NNW 24 37 13 20 1008.0 1007.9 0.0
24/04:30am 15.8 11.8 13.1 84 1.5 NNW 26 39 14 21 1008.0 1007.9 0.0
24/04:04am 16.2 11.9 13.1 82 1.7 NNW 28 46 15 25 1008.0 1007.9 0.0
24/04:00am 16.1 12.1 13.0 82 1.7 NNW 26 46 14 25 1008.1 1008.0 0.0
24/03:30am 16.1 12.4 12.8 81 1.8 NNW 24 39 13 21 1008.4 1008.3 0.0
24/03:00am 16.3 12.7 13.0 81 1.8 NNW 24 39 13 21 1009.0 1008.9 0.0
24/02:30am 16.2 13.0 13.1 82 1.7 NNW 22 37 12 20 1009.2 1009.1 0.0
24/02:00am 16.0 12.9 13.3 84 1.5 NNW 22 43 12 23 1009.2 1009.1 0.0
24/01:30am 15.4 12.5 12.9 85 1.4 NNW 20 28 11 15 1009.6 1009.6 0.0
24/01:00am 14.7 12.8 13.1 90 0.9 NNW 15 24 8 13 1010.1 1010.1 0.0
24/12:30am 14.0 12.4 12.9 93 0.6 NNW 13 22 7 12 1010.2 1010.2 0.0
24/12:00am 13.8 12.5 12.5 92 0.7 NNW 11 20 6 11 1010.6 1010.6 0.0
 
Date/Time
EST
Temp
°C
App
Temp
°C
Dew
Point
°C
Rel
Hum
%
Delta-T
°C
Wind Press
QNH
hPa
Press
MSL
hPa
Rain since
9am
mm
Dir  Spd
km/h
Gust
km/h
Spd
kts
Gust
kts
23/11:30pm 13.6 12.2 12.2 91 0.8 NNW 11 15 6 8 1010.7 1010.7 0.0
23/11:00pm 13.7 12.3 12.1 90 0.9 N 11 17 6 9 1011.2 1011.2 0.0
23/10:30pm 13.7 11.9 12.1 90 0.9 N 13 17 7 9 1011.3 1011.3 0.0
23/10:00pm 14.0 12.2 12.0 88 1.1 N 13 19 7 10 1011.4 1011.4 0.0
23/09:30pm 14.2 12.8 12.2 88 1.1 NNW 11 17 6 9 1011.0 1011.0 0.0
23/09:00pm 14.5 12.7 12.2 86 1.3 NNW 13 19 7 10 1011.3 1011.3 0.0
23/08:30pm 14.4 12.3 12.3 87 1.1 NNW 15 22 8 12 1011.2 1011.2 0.0
23/08:00pm 13.9 12.2 12.3 90 0.9 NNW 13 19 7 10 1011.6 1011.6 0.0
23/07:30pm 13.9 12.2 12.3 90 0.9 NNW 13 20 7 11 1011.6 1011.6 0.0
23/07:00pm 13.9 12.8 12.1 89 1.0 NNW 9 15 5 8 1011.7 1011.7 0.0
23/06:30pm 13.8 12.1 12.4 91 0.8 NNW 13 20 7 11 1011.3 1011.3 0.0
23/06:00pm 13.8 12.4 12.2 90 0.9 NNW 11 15 6 8 1011.2 1011.2 0.0
23/05:30pm 14.1 13.0 12.1 88 1.1 N 9 13 5 7 1011.1 1011.1 0.0
23/05:00pm 14.7 13.6 11.8 83 1.6 N 9 15 5 8 1011.1 1011.1 0.0
23/04:30pm 15.2 13.8 12.3 83 1.6 NNW 11 15 6 8 1010.9 1010.9 0.0
23/04:00pm 16.3 15.5 13.0 81 1.8 N 9 13 5 7 1010.8 1010.8 0.0
23/03:30pm 16.8 15.5 12.5 76 2.4 NNW 11 17 6 9 1011.1 1011.1 0.0
23/03:00pm 17.0 15.6 12.3 74 2.6 NNW 11 19 6 10 1011.3 1011.3 0.0
23/02:30pm 16.4 15.9 12.2 76 2.3 NNW 6 9 3 5 1011.5 1011.5 0.0
23/02:00pm 16.4 15.6 11.6 73 2.6 NNW 7 13 4 7 1012.1 1012.1 0.0
23/01:30pm 16.5 15.4 11.9 74 2.5 NNW 9 13 5 7 1012.4 1012.4 0.0
23/01:00pm 16.8 14.8 11.5 71 2.9 NNW 13 20 7 11 1012.3 1012.3 0.0

Other Formats:

Comma delimited format used in spreadsheet applications
http://www.bom.gov.au/fwo/IDN60801/IDN60801.94598.axf

JavaScript Object Notation format (JSON) in row-major order
http://www.bom.gov.au/fwo/IDN60801/IDN60801.94598.json